createdAt,value
2023-01-17T00:02:02.825Z,1.90
2023-01-17T00:04:50.069Z,1.80
2023-01-17T00:07:39.032Z,1.80
2023-01-17T00:10:10.670Z,1.80
2023-01-17T00:12:38.176Z,1.70
2023-01-17T00:15:06.845Z,1.70
2023-01-17T00:17:34.029Z,1.70
2023-01-17T00:20:23.050Z,1.70
2023-01-17T00:23:10.169Z,1.60
2023-01-17T00:25:59.293Z,1.60
2023-01-17T00:28:27.636Z,1.60
2023-01-17T00:30:54.740Z,1.50
2023-01-17T00:33:23.356Z,1.50
2023-01-17T00:35:52.074Z,1.50
2023-01-17T00:38:22.770Z,1.40
2023-01-17T00:40:50.704Z,1.40
2023-01-17T00:43:43.482Z,1.40
2023-01-17T00:46:31.286Z,1.30
2023-01-17T00:49:18.487Z,1.30
2023-01-17T00:52:05.552Z,1.30
2023-01-17T00:54:52.764Z,1.30
2023-01-17T00:57:39.939Z,1.30
2023-01-17T01:00:27.900Z,1.40
2023-01-17T01:03:14.961Z,1.40
2023-01-17T01:06:02.010Z,1.40
2023-01-17T01:08:49.864Z,1.40
2023-01-17T01:11:40.070Z,1.40
2023-01-17T01:14:29.980Z,1.40
2023-01-17T01:17:31.939Z,1.40
2023-01-17T01:20:19.557Z,1.30
2023-01-17T01:23:07.796Z,1.30
2023-01-17T01:25:56.427Z,1.30
2023-01-17T01:28:43.691Z,1.30
2023-01-17T01:33:48.807Z,1.40
2023-01-17T01:36:16.597Z,1.40
2023-01-17T01:38:44.084Z,1.30
2023-01-17T01:41:11.203Z,1.30
2023-01-17T01:43:48.203Z,1.40
2023-01-17T01:46:22.104Z,1.30
2023-01-17T01:48:55.469Z,1.30
2023-01-17T01:51:28.179Z,1.30
2023-01-17T01:54:01.533Z,1.30
2023-01-17T01:56:31.426Z,1.30
2023-01-17T01:59:03.263Z,1.30
2023-01-17T02:01:31.650Z,1.30
2023-01-17T02:03:59.272Z,1.30
2023-01-17T02:06:32.559Z,1.40
2023-01-17T02:09:07.258Z,1.40
2023-01-17T02:11:38.130Z,1.40
2023-01-17T02:14:05.865Z,1.30
2023-01-17T02:17:01.763Z,1.30
2023-01-17T02:19:48.892Z,1.30
2023-01-17T02:22:37.375Z,1.20
2023-01-17T02:25:15.859Z,1.20
2023-01-17T02:28:13.730Z,1.30
2023-01-17T02:30:46.170Z,1.30
2023-01-17T02:33:39.473Z,1.30
2023-01-17T02:36:13.361Z,1.30
2023-01-17T02:38:46.567Z,1.30
2023-01-17T02:41:22.023Z,1.30
2023-01-17T02:43:51.679Z,1.30
2023-01-17T02:46:18.935Z,1.40
2023-01-17T02:48:47.887Z,1.30
2023-01-17T02:51:22.615Z,1.30
2023-01-17T02:54:10.816Z,1.20
2023-01-17T02:56:53.216Z,1.20
2023-01-17T02:59:26.721Z,1.30
2023-01-17T03:02:01.411Z,1.20
2023-01-17T03:04:38.470Z,1.20
2023-01-17T03:07:16.451Z,1.30
2023-01-17T03:09:46.899Z,1.20
2023-01-17T03:12:14.373Z,1.30
2023-01-17T03:14:41.565Z,1.30
2023-01-17T03:17:09.209Z,1.30
2023-01-17T03:19:36.390Z,1.30
2023-01-17T03:22:03.762Z,1.30
2023-01-17T03:24:31.056Z,1.20
2023-01-17T03:26:58.725Z,1.20
2023-01-17T03:29:25.899Z,1.30
2023-01-17T03:31:53.180Z,1.30
2023-01-17T03:34:20.357Z,1.20
2023-01-17T03:36:47.655Z,1.30
2023-01-17T03:39:14.776Z,1.30
2023-01-17T03:41:42.310Z,1.40
2023-01-17T03:44:09.566Z,1.40
2023-01-17T03:46:37.009Z,1.30
2023-01-17T03:49:04.213Z,1.40
2023-01-17T03:51:31.545Z,1.40
2023-01-17T03:53:58.762Z,1.40
2023-01-17T03:56:26.090Z,1.40
2023-01-17T03:58:53.789Z,1.40
2023-01-17T04:01:21.113Z,1.40
2023-01-17T04:03:48.851Z,1.30
2023-01-17T04:06:16.776Z,1.30
2023-01-17T04:08:44.104Z,1.30
2023-01-17T04:11:11.380Z,1.20
2023-01-17T04:13:38.686Z,1.20
2023-01-17T04:16:06.307Z,1.10
2023-01-17T04:18:33.523Z,1.10
2023-01-17T04:21:00.639Z,1.00
2023-01-17T04:23:27.917Z,0.90
2023-01-17T04:25:55.098Z,0.90
2023-01-17T04:28:22.231Z,0.90
2023-01-17T04:30:49.546Z,0.80
2023-01-17T04:33:16.708Z,0.70
2023-01-17T04:35:43.894Z,0.70
2023-01-17T04:38:11.465Z,0.70
2023-01-17T04:40:38.803Z,0.60
2023-01-17T04:43:06.201Z,0.60
2023-01-17T04:45:33.404Z,0.50
2023-01-17T04:48:08.495Z,0.60
2023-01-17T04:50:35.731Z,0.50
2023-01-17T04:53:02.929Z,0.50
2023-01-17T04:55:30.136Z,0.60
2023-01-17T04:57:57.388Z,0.50
2023-01-17T05:00:24.501Z,0.50
2023-01-17T05:02:52.283Z,0.50
2023-01-17T05:05:19.700Z,0.40
2023-01-17T05:07:54.732Z,0.40
2023-01-17T05:10:22.467Z,0.50
2023-01-17T05:12:59.227Z,0.50
2023-01-17T05:15:27.152Z,0.50
2023-01-17T05:17:55.240Z,0.50
2023-01-17T05:20:26.735Z,0.50
2023-01-17T05:22:56.640Z,0.50
2023-01-17T05:25:26.606Z,0.50
2023-01-17T05:27:54.102Z,0.50
2023-01-17T05:30:22.266Z,0.60
2023-01-17T05:33:15.283Z,0.60
2023-01-17T05:35:42.595Z,0.60
2023-01-17T05:38:09.812Z,0.70
2023-01-17T05:40:37.447Z,0.70
2023-01-17T05:43:05.078Z,0.70
2023-01-17T05:45:34.390Z,0.70
2023-01-17T05:48:02.669Z,0.60
2023-01-17T05:50:33.892Z,0.60
2023-01-17T05:53:08.268Z,0.60
2023-01-17T05:55:36.691Z,0.50
2023-01-17T05:58:04.913Z,0.60
2023-01-17T06:00:32.947Z,0.60
2023-01-17T06:03:01.387Z,0.60
2023-01-17T06:05:30.115Z,0.60
2023-01-17T06:07:58.539Z,0.60
2023-01-17T06:10:27.292Z,0.60
2023-01-17T06:13:05.118Z,0.70
2023-01-17T06:15:33.609Z,0.60
2023-01-17T06:18:10.514Z,0.60
2023-01-17T06:20:39.974Z,0.50
2023-01-17T06:23:10.818Z,0.40
2023-01-17T06:25:44.160Z,0.40
2023-01-17T06:28:15.866Z,0.30
2023-01-17T06:30:45.658Z,0.30
2023-01-17T06:33:16.802Z,0.20
2023-01-17T06:35:50.557Z,0.20
2023-01-17T06:38:19.633Z,0.20
2023-01-17T06:40:49.019Z,0.20
2023-01-17T06:43:18.596Z,0.20
2023-01-17T06:45:48.693Z,0.20
2023-01-17T06:48:18.896Z,0.20
2023-01-17T06:50:49.043Z,0.20
2023-01-17T06:53:16.504Z,0.30
2023-01-17T06:55:45.830Z,0.30
2023-01-17T06:58:15.267Z,0.40
2023-01-17T07:00:45.291Z,0.50
2023-01-17T07:03:23.647Z,0.60
2023-01-17T07:05:53.114Z,1.10
2023-01-17T07:08:22.472Z,1.80
2023-01-17T07:10:51.296Z,2.10
2023-01-17T07:13:19.917Z,2.40
2023-01-17T07:15:47.645Z,3.30
2023-01-17T07:18:21.000Z,4.60
2023-01-17T07:20:51.271Z,5.80
2023-01-17T07:23:22.157Z,6.90
2023-01-17T07:25:56.615Z,7.90
2023-01-17T07:28:25.591Z,9.10
2023-01-17T07:30:54.924Z,9.50
2023-01-17T07:33:23.832Z,9.80
2023-01-17T07:35:54.251Z,9.20
2023-01-17T07:38:22.608Z,8.00
2023-01-17T07:40:52.126Z,7.30
2023-01-17T07:43:20.643Z,7.40
2023-01-17T07:45:52.352Z,8.40
2023-01-17T07:48:22.082Z,9.70
2023-01-17T07:50:55.836Z,9.80
2023-01-17T07:53:24.605Z,9.40
2023-01-17T07:55:53.611Z,9.00
2023-01-17T07:58:23.033Z,8.00
2023-01-17T08:00:51.992Z,6.50
2023-01-17T08:03:21.659Z,5.80
2023-01-17T08:05:58.748Z,5.60
2023-01-17T08:08:28.741Z,5.10
2023-01-17T08:10:58.140Z,4.60
2023-01-17T08:13:29.090Z,4.10
2023-01-17T08:16:03.117Z,3.70
2023-01-17T08:18:33.157Z,3.20
2023-01-17T08:21:03.698Z,3.00
2023-01-17T08:23:34.010Z,3.00
2023-01-17T08:26:04.595Z,3.00
2023-01-17T08:28:33.149Z,2.90
2023-01-17T08:31:11.221Z,2.90
2023-01-17T08:33:41.370Z,2.90
2023-01-17T08:36:12.883Z,2.80
2023-01-17T08:38:42.466Z,2.90
2023-01-17T08:41:11.234Z,3.00
2023-01-17T08:43:40.417Z,3.10
2023-01-17T08:46:07.950Z,3.20
2023-01-17T08:48:35.994Z,3.30
2023-01-17T08:51:04.679Z,3.40
2023-01-17T08:53:34.045Z,3.40
2023-01-17T08:56:02.762Z,3.50
2023-01-17T08:58:31.480Z,3.50
2023-01-17T09:01:04.900Z,3.30
2023-01-17T09:03:35.342Z,3.30
2023-01-17T09:06:11.066Z,3.10
2023-01-17T09:08:39.498Z,3.00
2023-01-17T09:11:10.530Z,3.00
2023-01-17T09:13:41.780Z,2.90
2023-01-17T09:16:11.500Z,2.90
2023-01-17T09:18:39.959Z,2.90
2023-01-17T09:21:18.533Z,2.90
2023-01-17T09:23:48.021Z,3.10
2023-01-17T09:26:32.087Z,3.10
2023-01-17T09:28:59.970Z,3.20
2023-01-17T09:31:28.782Z,3.70
2023-01-17T09:33:58.977Z,4.10
2023-01-17T09:36:30.130Z,4.50
2023-01-17T09:38:59.216Z,4.70
2023-01-17T09:41:32.063Z,4.90
2023-01-17T09:44:03.933Z,5.10
2023-01-17T09:46:40.937Z,5.20
2023-01-17T09:49:15.979Z,5.30
2023-01-17T09:51:45.900Z,5.30
2023-01-17T09:54:23.981Z,5.20
2023-01-17T09:57:02.003Z,5.10
2023-01-17T10:00:03.277Z,4.80
2023-01-17T10:02:56.013Z,4.80
2023-01-17T10:05:54.846Z,4.80
2023-01-17T10:08:44.690Z,4.70
2023-01-17T10:11:37.390Z,4.70
2023-01-17T10:14:24.470Z,4.50
2023-01-17T10:17:16.504Z,4.30
2023-01-17T10:19:53.350Z,4.10
2023-01-17T10:22:31.220Z,4.10
2023-01-17T10:25:25.659Z,4.20
2023-01-17T10:28:04.781Z,4.30
2023-01-17T10:30:39.245Z,4.60
2023-01-17T10:33:16.541Z,4.80
2023-01-17T10:35:57.117Z,4.80
2023-01-17T10:38:31.912Z,4.70
2023-01-17T10:41:04.730Z,4.50
2023-01-17T10:43:51.752Z,4.50
2023-01-17T10:46:28.596Z,4.40
2023-01-17T10:48:56.646Z,4.40
2023-01-17T10:51:43.939Z,4.40
2023-01-17T10:54:36.413Z,4.40
2023-01-17T10:57:03.911Z,4.40
2023-01-17T10:59:34.411Z,4.40
2023-01-17T11:02:07.593Z,4.40
2023-01-17T11:04:36.984Z,4.40
2023-01-17T11:07:17.043Z,4.30
2023-01-17T11:09:46.605Z,4.30
2023-01-17T11:12:35.329Z,4.30
2023-01-17T11:15:21.673Z,4.30
2023-01-17T11:17:53.270Z,4.30
2023-01-17T11:20:28.178Z,4.30
2023-01-17T11:23:16.327Z,4.30
2023-01-17T11:25:49.566Z,4.20
2023-01-17T11:28:23.281Z,4.20
2023-01-17T11:30:54.803Z,4.20
2023-01-17T11:33:59.487Z,4.10
2023-01-17T11:36:29.317Z,4.00
2023-01-17T11:39:05.535Z,4.00
2023-01-17T11:41:36.792Z,3.90
2023-01-17T11:44:21.107Z,4.00
2023-01-17T11:46:48.862Z,3.90
2023-01-17T11:49:26.001Z,3.80
2023-01-17T11:51:56.328Z,3.80
2023-01-17T11:54:26.435Z,3.80
2023-01-17T11:57:02.263Z,3.70
2023-01-17T11:59:37.472Z,3.80
2023-01-17T12:02:38.176Z,3.80
2023-01-17T12:05:45.120Z,3.80
2023-01-17T12:08:51.394Z,3.90
2023-01-17T12:11:29.070Z,3.90
2023-01-17T12:14:07.622Z,3.90
2023-01-17T12:17:11.622Z,3.80
2023-01-17T12:20:01.695Z,3.70
2023-01-17T12:22:47.687Z,3.50
2023-01-17T12:25:45.249Z,3.50
2023-01-17T12:28:37.254Z,3.40
2023-01-17T12:31:44.354Z,3.30
2023-01-17T12:34:26.459Z,3.30
2023-01-17T12:37:02.219Z,3.20
2023-01-17T12:39:37.339Z,3.10
2023-01-17T12:42:09.023Z,3.10
2023-01-17T12:44:46.657Z,3.10
2023-01-17T12:47:16.091Z,3.10
2023-01-17T12:49:54.076Z,3.00
2023-01-17T12:52:42.600Z,3.10
2023-01-17T12:55:19.641Z,3.10
2023-01-17T12:57:56.404Z,3.10
2023-01-17T13:00:25.635Z,3.10
2023-01-17T13:03:16.951Z,3.00
2023-01-17T13:05:47.079Z,3.00
2023-01-17T13:08:34.545Z,3.00
2023-01-17T13:11:23.400Z,3.10
2023-01-17T13:13:52.353Z,3.00
2023-01-17T13:16:29.782Z,3.00
2023-01-17T13:19:07.717Z,3.00
2023-01-17T13:21:35.560Z,3.00
2023-01-17T13:24:36.500Z,3.10
2023-01-17T13:27:23.708Z,3.10
2023-01-17T13:30:18.169Z,3.20
2023-01-17T13:32:46.381Z,3.20
2023-01-17T13:35:27.251Z,3.20
2023-01-17T13:38:15.281Z,3.30
2023-01-17T13:40:49.765Z,3.20
2023-01-17T13:43:30.388Z,3.20
2023-01-17T13:46:03.743Z,3.20
2023-01-17T13:48:33.397Z,3.20
2023-01-17T13:51:04.043Z,3.20
2023-01-17T13:53:34.913Z,3.20
2023-01-17T13:56:11.010Z,3.20
2023-01-17T13:58:58.657Z,3.20
2023-01-17T14:01:38.680Z,3.20
2023-01-17T14:04:13.556Z,3.20
2023-01-17T14:06:49.209Z,3.20
2023-01-17T14:09:17.463Z,3.20
2023-01-17T14:11:57.735Z,3.20
2023-01-17T14:14:42.651Z,3.20
2023-01-17T14:17:33.012Z,3.20
2023-01-17T14:20:17.505Z,3.20
2023-01-17T14:22:54.401Z,3.20
2023-01-17T14:25:28.937Z,3.10
2023-01-17T14:28:01.564Z,3.10
2023-01-17T14:30:37.843Z,3.10
2023-01-17T14:33:09.943Z,3.10
2023-01-17T14:35:51.529Z,3.10
2023-01-17T14:38:23.806Z,3.00
2023-01-17T14:40:58.429Z,3.00
2023-01-17T14:43:28.736Z,2.90
2023-01-17T14:46:00.849Z,2.90
2023-01-17T14:48:31.141Z,2.90
2023-01-17T14:51:01.076Z,2.90
2023-01-17T14:53:31.630Z,2.80
2023-01-17T14:56:00.618Z,2.80
2023-01-17T14:58:31.471Z,2.70
2023-01-17T15:01:18.212Z,2.70
2023-01-17T15:03:47.193Z,2.70
2023-01-17T15:06:19.417Z,2.70
2023-01-17T15:08:48.502Z,2.70
2023-01-17T15:11:22.653Z,2.60
2023-01-17T15:13:54.049Z,2.60
2023-01-17T15:16:25.714Z,2.60
2023-01-17T15:18:56.178Z,2.50
2023-01-17T15:21:27.379Z,2.50
2023-01-17T15:23:58.755Z,2.50
2023-01-17T15:26:33.237Z,2.50
2023-01-17T15:29:06.671Z,2.50
2023-01-17T15:31:51.132Z,2.50
2023-01-17T15:34:25.827Z,2.50
2023-01-17T15:36:58.684Z,2.40
2023-01-17T15:39:34.039Z,2.40
2023-01-17T15:42:05.630Z,2.40
2023-01-17T15:44:48.226Z,2.40
2023-01-17T15:47:33.942Z,2.30
2023-01-17T15:50:02.283Z,2.30
2023-01-17T15:52:29.998Z,2.30
2023-01-17T15:55:10.818Z,2.30
2023-01-17T15:57:44.961Z,2.30
2023-01-17T16:00:15.689Z,2.20
2023-01-17T16:02:45.800Z,2.20
2023-01-17T16:05:33.762Z,2.10
2023-01-17T16:08:02.480Z,2.10
2023-01-17T16:10:32.701Z,2.20
2023-01-17T16:13:00.689Z,2.20
2023-01-17T16:15:29.287Z,2.20
2023-01-17T16:18:06.987Z,2.20
2023-01-17T16:20:41.249Z,2.20
2023-01-17T16:23:11.969Z,2.20
2023-01-17T16:25:40.440Z,2.20
2023-01-17T16:28:08.093Z,2.20
2023-01-17T16:30:36.015Z,2.10
2023-01-17T16:33:04.078Z,2.00
2023-01-17T16:35:34.568Z,2.00
2023-01-17T16:38:05.396Z,2.00
2023-01-17T16:40:40.482Z,2.00
2023-01-17T16:43:08.059Z,2.00
2023-01-17T16:45:42.628Z,1.90
2023-01-17T16:48:12.678Z,1.90
2023-01-17T16:50:48.200Z,1.90
2023-01-17T16:53:17.277Z,1.90
2023-01-17T16:55:45.713Z,1.90
2023-01-17T16:58:12.909Z,1.90
2023-01-17T17:00:41.529Z,2.00
2023-01-17T17:03:16.102Z,1.80
2023-01-17T17:05:46.000Z,1.90
2023-01-17T17:08:14.920Z,1.80
2023-01-17T17:10:42.405Z,1.80
2023-01-17T17:13:09.878Z,1.80
2023-01-17T17:15:42.261Z,1.80
2023-01-17T17:18:15.346Z,1.90
2023-01-17T17:20:43.824Z,1.80
2023-01-17T17:23:11.618Z,1.80
2023-01-17T17:25:39.445Z,1.80
2023-01-17T17:28:07.247Z,1.80
2023-01-17T17:30:36.246Z,1.90
2023-01-17T17:33:05.596Z,1.90
2023-01-17T17:35:35.907Z,1.90
2023-01-17T17:38:05.792Z,1.90
2023-01-17T17:40:36.104Z,1.90
2023-01-17T17:43:03.542Z,1.90
2023-01-17T17:45:32.011Z,1.90
2023-01-17T17:47:59.539Z,1.90
2023-01-17T17:50:27.103Z,1.80
2023-01-17T17:52:54.721Z,1.80
2023-01-17T17:55:22.160Z,1.80
2023-01-17T17:57:49.983Z,1.80
2023-01-17T18:00:17.962Z,1.80
2023-01-17T18:02:46.193Z,1.80
2023-01-17T18:05:13.415Z,1.80
2023-01-17T18:07:42.121Z,1.80
2023-01-17T18:10:10.125Z,1.80
2023-01-17T18:12:37.547Z,1.80
2023-01-17T18:15:06.138Z,1.70
2023-01-17T18:17:33.539Z,1.70
2023-01-17T18:20:02.327Z,1.70
2023-01-17T18:22:29.848Z,1.70
2023-01-17T18:24:57.385Z,1.70
2023-01-17T18:27:25.109Z,1.70
2023-01-17T18:29:52.667Z,1.70
2023-01-17T18:32:21.000Z,1.80
2023-01-17T18:34:48.376Z,1.80
2023-01-17T18:37:16.510Z,1.70
2023-01-17T18:39:45.137Z,1.70
2023-01-17T18:42:12.366Z,1.80
2023-01-17T18:44:39.668Z,1.80
2023-01-17T18:47:07.121Z,1.80
2023-01-17T18:49:35.550Z,1.80
2023-01-17T18:52:03.070Z,1.80
2023-01-17T18:54:32.094Z,1.80
2023-01-17T18:56:59.948Z,1.70
2023-01-17T18:59:27.230Z,1.70
2023-01-17T19:01:55.095Z,1.70
2023-01-17T19:04:22.750Z,1.70
2023-01-17T19:06:50.399Z,1.70
2023-01-17T19:09:17.848Z,1.70
2023-01-17T19:11:47.574Z,1.80
2023-01-17T19:14:16.047Z,1.80
2023-01-17T19:16:43.929Z,1.90
2023-01-17T19:19:16.126Z,1.80
2023-01-17T19:21:44.466Z,1.80
2023-01-17T19:24:13.511Z,1.80
2023-01-17T19:26:41.874Z,1.80
2023-01-17T19:29:10.439Z,1.90
2023-01-17T19:31:42.965Z,1.80
2023-01-17T19:34:13.964Z,1.80
2023-01-17T19:36:42.330Z,1.80
2023-01-17T19:39:10.116Z,1.80
2023-01-17T19:41:42.828Z,1.80
2023-01-17T19:44:12.043Z,1.80
2023-01-17T19:46:39.729Z,1.80
2023-01-17T19:49:08.820Z,1.80
2023-01-17T19:51:37.353Z,1.80
2023-01-17T19:54:06.691Z,1.70
2023-01-17T19:56:34.523Z,1.70
2023-01-17T19:59:02.676Z,1.70
2023-01-17T20:01:33.026Z,1.70
2023-01-17T20:04:02.577Z,1.70
2023-01-17T20:06:33.513Z,1.70
2023-01-17T20:09:01.704Z,1.70
2023-01-17T20:11:29.413Z,1.70
2023-01-17T20:13:58.385Z,1.60
2023-01-17T20:16:27.836Z,1.60
2023-01-17T20:18:55.491Z,1.70
2023-01-17T20:21:24.963Z,1.70
2023-01-17T20:23:54.746Z,1.70
2023-01-17T20:26:29.350Z,1.70
2023-01-17T20:28:56.979Z,1.70
2023-01-17T20:31:26.191Z,1.70
2023-01-17T20:33:55.381Z,1.70
2023-01-17T20:36:25.572Z,1.70
2023-01-17T20:38:54.975Z,1.70
2023-01-17T20:41:31.570Z,1.70
2023-01-17T20:44:01.267Z,1.70
2023-01-17T20:46:33.475Z,1.70
2023-01-17T20:49:01.851Z,1.70
2023-01-17T20:51:30.030Z,1.70
2023-01-17T20:54:00.513Z,1.70
2023-01-17T20:56:30.509Z,1.70
2023-01-17T20:58:58.027Z,1.70
2023-01-17T21:01:25.592Z,1.70
2023-01-17T21:03:54.090Z,1.70
2023-01-17T21:06:23.120Z,1.70
2023-01-17T21:08:50.957Z,1.70
2023-01-17T21:11:22.329Z,1.70
2023-01-17T21:13:51.586Z,1.70
2023-01-17T21:16:22.674Z,1.60
2023-01-17T21:18:52.187Z,1.60
2023-01-17T21:21:23.717Z,1.60
2023-01-17T21:23:53.549Z,1.60
2023-01-17T21:26:22.953Z,1.60
2023-01-17T21:28:51.062Z,1.60
2023-01-17T21:31:29.382Z,1.60
2023-01-17T21:33:57.791Z,1.60
2023-01-17T21:36:29.437Z,1.60
2023-01-17T21:38:58.751Z,1.60
2023-01-17T21:41:28.989Z,1.70
2023-01-17T21:43:59.396Z,1.70
2023-01-17T21:46:27.854Z,1.70
2023-01-17T21:48:56.907Z,1.60
2023-01-17T21:51:25.069Z,1.70
2023-01-17T21:53:52.509Z,1.70
2023-01-17T21:56:39.653Z,1.70
2023-01-17T21:59:07.263Z,1.60
2023-01-17T22:01:34.490Z,1.60
2023-01-17T22:04:03.602Z,1.60
2023-01-17T22:06:34.676Z,1.50
2023-01-17T22:09:06.322Z,1.50
2023-01-17T22:11:36.892Z,1.50
2023-01-17T22:14:05.223Z,1.50
2023-01-17T22:16:32.924Z,1.50
2023-01-17T22:19:00.712Z,1.50
2023-01-17T22:21:29.121Z,1.50
2023-01-17T22:23:59.387Z,1.50
2023-01-17T22:26:30.448Z,1.50
2023-01-17T22:29:02.446Z,1.50
2023-01-17T22:31:30.696Z,1.50
2023-01-17T22:34:02.943Z,1.60
2023-01-17T22:36:33.686Z,1.60
2023-01-17T22:39:02.392Z,1.60
2023-01-17T22:41:31.492Z,1.60
2023-01-17T22:44:02.319Z,1.60
2023-01-17T22:46:32.606Z,1.60
2023-01-17T22:49:00.620Z,1.60
2023-01-17T22:51:29.259Z,1.50
2023-01-17T22:53:59.239Z,1.60
2023-01-17T22:56:29.398Z,1.60
2023-01-17T22:58:57.610Z,1.60
2023-01-17T23:01:28.699Z,1.60
2023-01-17T23:04:00.153Z,1.60
2023-01-17T23:06:31.154Z,1.60
2023-01-17T23:09:01.748Z,1.60
2023-01-17T23:11:41.340Z,1.60
2023-01-17T23:14:30.060Z,1.60
2023-01-17T23:17:21.461Z,1.60
2023-01-17T23:19:52.555Z,1.60
2023-01-17T23:22:24.632Z,1.60
2023-01-17T23:24:54.010Z,1.60
2023-01-17T23:27:44.950Z,1.60
2023-01-17T23:30:18.116Z,1.60
2023-01-17T23:32:51.624Z,1.60
2023-01-17T23:35:21.514Z,1.60
2023-01-17T23:38:09.062Z,1.60
2023-01-17T23:40:38.131Z,1.60
2023-01-17T23:43:26.693Z,1.60
2023-01-17T23:45:54.876Z,1.60
2023-01-17T23:48:26.101Z,1.70
2023-01-17T23:50:59.690Z,1.70
2023-01-17T23:53:27.579Z,1.70
2023-01-17T23:55:57.923Z,1.60
2023-01-17T23:58:28.050Z,1.60
